James Davison — WDF9427 — position and weather

sailwx.info

Track history (hours):
 
Tides and Currents Weather Stations Pressure Air Temp Water Temp Dewpoint Dewpoint Depression Visibility Wind Speed Wind Dir Waves Ship Positions

James Davison

Owner: Genesis Marine, LLC, Houston, TX. More information available from US FCC via Universal Licensing System and Coast Guard Vessel Documentation Center.

Last reported at 2018-Jul-17 11:28 UTC. Time now 2018-Jul-17 11:33 UTC.
Position N 29°47' W 095°06'.

Length 26 m; draft 3 m.

Type: Other ship. MMSI: 367505050.

Date/timePositionNaut miles runAvg speedWind from/ knotsBaromVisibWave heightAir tempDewpointWater temp
2018-Jul-17 11:28N 29°47' W 095°06'0 0.0
2018-Jul-17 11:00N 29°47' W 095°06'0 0.0
2018-Jul-17 10:25N 29°47' W 095°06'0 0.0
2018-Jul-17 09:56N 29°47' W 095°06'0 0.0
2018-Jul-17 09:28N 29°47' W 095°06'0 0.0
2018-Jul-17 09:00N 29°47' W 095°06'0 0.0
2018-Jul-17 08:29N 29°47' W 095°06'0 0.0
2018-Jul-17 08:00N 29°47' W 095°06'0 0.0
2018-Jul-17 07:30N 29°47' W 095°06'0 0.0
2018-Jul-17 07:00N 29°47' W 095°06'0 0.0
2018-Jul-17 06:30N 29°47' W 095°06'0 0.0
2018-Jul-17 06:00N 29°47' W 095°06'0 0.0
2018-Jul-17 05:30N 29°47' W 095°06'0 0.0
2018-Jul-17 05:00N 29°47' W 095°06'0 0.0
2018-Jul-17 04:30N 29°47' W 095°06'0 0.0
2018-Jul-17 04:00N 29°47' W 095°06'0 0.0
2018-Jul-17 03:30N 29°47' W 095°06'0 0.0
2018-Jul-17 02:43N 29°47' W 095°06'0 0.0
2018-Jul-17 02:02N 29°47' W 095°06'0 0.0
2018-Jul-17 01:51N 29°47' W 095°06'0 0.0
2018-Jul-16 14:23N 29°47' W 095°06'0 0.0
2018-Jul-16 13:58N 29°47' W 095°06'0 0.0
2018-Jul-16 13:30N 29°47' W 095°06'0 0.0
2018-Jul-16 13:00N 29°47' W 095°06'0 0.1
2018-Jul-16 12:18N 29°47' W 095°06'0 0.2
2018-Jul-16 11:59N 29°47' W 095°06'0 0.0
2018-Jul-16 11:09N 29°47' W 095°06'0 0.0
2018-Jul-16 09:03N 29°47' W 095°06'0 0.0
2018-Jul-16 08:12N 29°47' W 095°06'0 0.0
2018-Jul-16 07:55N 29°47' W 095°06'1 0.0
2018-Jul-15 08:01N 29°46' W 095°05'0 2.3
2018-Jul-15 07:57N 29°46' W 095°05'1 1.9
2018-Jul-15 07:29N 29°45' W 095°06'0 0.0
2018-Jul-15 06:57N 29°45' W 095°06'0 0.0
2018-Jul-15 06:11N 29°45' W 095°06'0 0.0
2018-Jul-15 06:00N 29°45' W 095°06'0 0.0
2018-Jul-15 05:20N 29°45' W 095°06'0 0.0
2018-Jul-15 04:54N 29°45' W 095°06'0 0.0
2018-Jul-15 04:28N 29°45' W 095°06'0 0.0
2018-Jul-15 04:00N 29°45' W 095°06'0 0.0
2018-Jul-15 03:27N 29°45' W 095°06'0 0.0
2018-Jul-15 02:56N 29°45' W 095°06'0 0.0
2018-Jul-15 02:14N 29°45' W 095°06'0 0.0
2018-Jul-15 02:00N 29°45' W 095°06'0 0.0
2018-Jul-15 01:29N 29°45' W 095°06'0 0.0
2018-Jul-15 00:59N 29°45' W 095°06'0 0.0
2018-Jul-14 13:08N 29°45' W 095°06'0 0.0
2018-Jul-14 12:08N 29°45' W 095°06'1 0.1
2018-Jul-14 07:43N 29°45' W 095°06'1 3.0
2018-Jul-14 07:29N 29°46' W 095°05'2 1.4
2018-Jul-14 06:06N 29°47' W 095°04'2 4.2
2018-Jul-14 05:42N 29°46' W 095°05'0 0.0
2018-Jul-14 04:02N 29°46' W 095°05'4 0.8
2018-Jul-13 22:30N 29°43' W 095°01'2 4.3
2018-Jul-13 22:00N 29°42' W 094°59'3 5.1
2018-Jul-13 21:30N 29°39' W 094°58'3 5.1
2018-Jul-13 20:58N 29°37' W 094°57'2 4.4
2018-Jul-13 20:30N 29°35' W 094°56'2 4.9
2018-Jul-13 20:00N 29°33' W 094°54'3 5.6
2018-Jul-13 19:28N 29°30' W 094°53'9 5.5
2018-Jul-13 17:54N 29°23' W 094°48'1 3.3
2018-Jul-13 17:30N 29°22' W 094°50'2 4.1
2018-Jul-13 17:00N 29°23' W 094°52'1 1.8
2018-Jul-13 16:30N 29°23' W 094°53'1 1.5
2018-Jul-13 16:00N 29°23' W 094°52'0 0.6
2018-Jul-13 15:30N 29°23' W 094°52'0 0.1
2018-Jul-13 15:00N 29°23' W 094°52'0 0.0
2018-Jul-13 14:27N 29°23' W 094°52'0 0.0
2018-Jul-13 13:30N 29°23' W 094°52'0 0.0
2018-Jul-13 13:00N 29°23' W 094°52'0 0.0
2018-Jul-13 12:30N 29°23' W 094°52'0 0.0
2018-Jul-13 12:00N 29°23' W 094°52'0 0.0
2018-Jul-13 11:31N 29°23' W 094°52'0 0.0
2018-Jul-13 10:59N 29°23' W 094°52'0 0.0
2018-Jul-13 10:30N 29°23' W 094°52'0 0.0
2018-Jul-13 10:00N 29°23' W 094°52'0 0.0
2018-Jul-13 09:30N 29°23' W 094°52'0 0.0
2018-Jul-13 09:00N 29°23' W 094°52'0 0.0
2018-Jul-13 08:30N 29°23' W 094°52'0 0.0
2018-Jul-13 08:00N 29°23' W 094°52'0 0.0
2018-Jul-13 07:31N 29°23' W 094°52'0 0.0
2018-Jul-13 07:01N 29°23' W 094°52'0 0.0
2018-Jul-13 06:31N 29°23' W 094°52'0 0.0
2018-Jul-13 06:00N 29°23' W 094°52'0 0.0
2018-Jul-13 05:31N 29°23' W 094°52'0 0.0
2018-Jul-13 05:01N 29°23' W 094°52'0 0.0
2018-Jul-13 04:30N 29°23' W 094°52'0 0.0
2018-Jul-13 04:00N 29°23' W 094°52'0 0.0
2018-Jul-13 03:30N 29°23' W 094°52'0 0.0
2018-Jul-13 03:00N 29°23' W 094°52'0 0.0
2018-Jul-13 02:28N 29°23' W 094°52'0 0.0
2018-Jul-13 02:00N 29°23' W 094°52'0 0.0
2018-Jul-13 01:30N 29°23' W 094°52'1 2.9
2018-Jul-13 01:01N 29°22' W 094°54'1 2.8
2018-Jul-13 00:30N 29°23' W 094°52'0 0.0
2018-Jul-13 00:00N 29°23' W 094°52'0 0.0
2018-Jul-12 23:30N 29°23' W 094°52'0 0.0
2018-Jul-12 23:00N 29°23' W 094°52'0 0.0
2018-Jul-12 22:30N 29°23' W 094°52'0 0.0
2018-Jul-12 22:01N 29°23' W 094°52'0 0.0
2018-Jul-12 21:30N 29°23' W 094°52'0 0.0
2018-Jul-12 21:01N 29°23' W 094°52'0 0.0
2018-Jul-12 20:30N 29°23' W 094°52'0 0.1
2018-Jul-12 20:00N 29°23' W 094°52'1 1.9
2018-Jul-12 19:30N 29°23' W 094°53'0 1.0
2018-Jul-12 19:00N 29°22' W 094°53'0 0.0
2018-Jul-12 18:31N 29°22' W 094°53'0 0.0
2018-Jul-12 18:00N 29°22' W 094°53'0 0.0
2018-Jul-12 17:30N 29°22' W 094°53'0 0.0
2018-Jul-12 17:00N 29°22' W 094°53'0 0.0
2018-Jul-12 16:29N 29°22' W 094°53'0 0.4
2018-Jul-12 15:18N 29°22' W 094°54'0 1.5
2018-Jul-12 15:00N 29°22' W 094°53'0 0.0
2018-Jul-12 14:30N 29°22' W 094°53'0 0.0
2018-Jul-12 13:48N 29°22' W 094°53'0 0.0
2018-Jul-12 13:30N 29°22' W 094°53'0 0.0
2018-Jul-12 13:00N 29°22' W 094°53'0 0.0
2018-Jul-12 12:30N 29°22' W 094°53'0 0.0
2018-Jul-12 11:56N 29°22' W 094°53'0 0.0
2018-Jul-12 11:30N 29°22' W 094°53'0 0.0
2018-Jul-12 11:00N 29°22' W 094°53'0 0.0
2018-Jul-12 10:29N 29°22' W 094°53'0 0.0
2018-Jul-12 10:00N 29°22' W 094°53'0 0.0
2018-Jul-12 09:30N 29°22' W 094°53'0 0.0
2018-Jul-12 08:35N 29°22' W 094°53'0 0.0
2018-Jul-12 05:45N 29°22' W 094°53'0 0.0
2018-Jul-12 05:11N 29°22' W 094°53'0 0.0
2018-Jul-12 05:00N 29°22' W 094°53'0 0.2
2018-Jul-12 04:30N 29°22' W 094°53'0 0.5
2018-Jul-12 04:00N 29°22' W 094°53'1 2.6
2018-Jul-12 03:30N 29°23' W 094°52'3 6.5
2018-Jul-12 02:58N 29°22' W 094°48'2 4.9
2018-Jul-12 02:30N 29°23' W 094°46'0 0.4
2018-Jul-12 01:58N 29°24' W 094°46'20 6.1
2018-Jul-11 22:42N 29°34' W 094°26'2 5.4
2018-Jul-11 22:19N 29°36' W 094°25'9 6.0
2018-Jul-11 20:49N 29°39' W 094°15'2 6.1
2018-Jul-11 20:30N 29°40' W 094°13'3 6.0
2018-Jul-11 20:00N 29°41' W 094°10'3 5.9
2018-Jul-11 19:30N 29°43' W 094°07'3 6.1
2018-Jul-11 19:00N 29°45' W 094°05'3 6.0
2018-Jul-11 18:30N 29°47' W 094°02'3 6.0
2018-Jul-11 18:00N 29°49' W 093°60'3 5.0
2018-Jul-11 17:30N 29°50' W 093°57'2 4.9
2018-Jul-11 17:00N 29°52' W 093°56'3 6.6
2018-Jul-11 16:30N 29°55' W 093°53'2 4.8
2018-Jul-11 16:00N 29°57' W 093°52'3 5.2
2018-Jul-11 15:30N 29°59' W 093°53'1 2.2
2018-Jul-11 15:00N 29°60' W 093°55'0 0.0
2018-Jul-11 14:30N 29°60' W 093°55'0 0.0
2018-Jul-11 14:00N 29°60' W 093°55'0 0.0
2018-Jul-11 13:30N 29°60' W 093°55'0 0.0
2018-Jul-11 13:00N 29°60' W 093°55'0 0.0
2018-Jul-11 12:30N 29°60' W 093°55'0 0.0
2018-Jul-11 12:00N 29°60' W 093°55'0 0.0
2018-Jul-11 11:30N 29°60' W 093°55'0 0.0
2018-Jul-11 10:59N 29°60' W 093°55'0 0.0
2018-Jul-11 10:30N 29°60' W 093°55'0 0.0
2018-Jul-11 10:00N 29°60' W 093°55'0 0.0
2018-Jul-11 09:30N 29°60' W 093°55'1 2.4
2018-Jul-11 09:00N 29°59' W 093°53'3 5.2
2018-Jul-11 08:30N 29°57' W 093°52'4 7.4
2018-Jul-11 08:00N 29°54' W 093°54'4 7.1
2018-Jul-11 07:30N 29°51' W 093°57'1 2.9
2018-Jul-11 07:00N 29°50' W 093°58'1 1.5
2018-Jul-11 06:30N 29°51' W 093°58'0 0.0
2018-Jul-11 06:00N 29°51' W 093°58'0 0.0
2018-Jul-11 05:30N 29°51' W 093°58'0 0.0
2018-Jul-11 05:00N 29°51' W 093°58'0 0.0
2018-Jul-11 04:30N 29°51' W 093°58'0 0.0
2018-Jul-11 04:00N 29°51' W 093°58'0 0.0
2018-Jul-11 03:30N 29°51' W 093°58'0 0.0
2018-Jul-11 03:00N 29°51' W 093°58'0 0.0
2018-Jul-11 02:30N 29°51' W 093°58'0 0.0
2018-Jul-11 02:01N 29°51' W 093°58'0 0.0
2018-Jul-11 01:31N 29°51' W 093°58'0 0.0
2018-Jul-11 01:00N 29°51' W 093°58'0 0.0
2018-Jul-11 00:30N 29°51' W 093°58'0 0.0
2018-Jul-11 00:00N 29°51' W 093°58'0 0.0
2018-Jul-10 23:30N 29°51' W 093°58'0 0.0
2018-Jul-10 23:00N 29°51' W 093°58'0 0.0
2018-Jul-10 22:30N 29°51' W 093°58'0 0.0
2018-Jul-10 22:00N 29°51' W 093°58'0 0.0
2018-Jul-10 21:30N 29°51' W 093°58'0 0.0
2018-Jul-10 21:00N 29°51' W 093°58'0 0.0
2018-Jul-10 20:30N 29°51' W 093°58'0 0.0
2018-Jul-10 20:00N 29°51' W 093°58'0 0.0
2018-Jul-10 19:30N 29°51' W 093°58'0 0.0
2018-Jul-10 19:00N 29°51' W 093°58'0 0.0
2018-Jul-10 18:30N 29°51' W 093°58'0 0.0
2018-Jul-10 18:01N 29°51' W 093°58'0 0.0
2018-Jul-10 17:30N 29°51' W 093°58'0 0.0
2018-Jul-10 17:00N 29°51' W 093°58'0 0.0
2018-Jul-10 16:30N 29°51' W 093°58'0 0.0
2018-Jul-10 16:00N 29°51' W 093°58'0 0.0
2018-Jul-10 15:30N 29°51' W 093°58'0 0.0
2018-Jul-10 15:00N 29°51' W 093°58'0 0.0
2018-Jul-10 14:30N 29°51' W 093°58'0 0.0
2018-Jul-10 14:00N 29°51' W 093°58'0 0.0
2018-Jul-10 13:30N 29°51' W 093°58'0 0.0
2018-Jul-10 13:00N 29°51' W 093°58'0 0.0
2018-Jul-10 12:30N 29°51' W 093°58'0 0.0
2018-Jul-10 12:00N 29°51' W 093°58'0 0.0
2018-Jul-10 11:30N 29°51' W 093°58'0 0.0
2018-Jul-10 11:00N 29°51' W 093°58'1 1.9
2018-Jul-10 10:30N 29°50' W 093°58'1 1.3
2018-Jul-10 10:00N 29°49' W 093°58'0 0.0
2018-Jul-10 09:30N 29°49' W 093°58'0 0.0
2018-Jul-10 09:00N 29°49' W 093°58'0 0.0
2018-Jul-10 08:30N 29°49' W 093°58'0 0.0
2018-Jul-10 08:00N 29°49' W 093°58'0 0.0
2018-Jul-10 07:30N 29°49' W 093°58'0 0.0
2018-Jul-10 07:00N 29°49' W 093°58'0 0.0
2018-Jul-10 06:30N 29°49' W 093°58'0 0.0
2018-Jul-10 06:00N 29°49' W 093°58'0 0.0
2018-Jul-10 05:30N 29°49' W 093°58'0 0.0
2018-Jul-10 05:00N 29°49' W 093°58'0 0.0
2018-Jul-10 04:30N 29°49' W 093°58'0 0.0
2018-Jul-10 04:00N 29°49' W 093°58'0 0.0
2018-Jul-10 03:30N 29°49' W 093°58'0 0.0
2018-Jul-10 03:00N 29°49' W 093°58'0 0.0
2018-Jul-10 02:30N 29°49' W 093°58'0 0.0
2018-Jul-10 02:00N 29°49' W 093°58'0 0.0
2018-Jul-10 01:31N 29°49' W 093°58'0 0.0
2018-Jul-10 01:00N 29°49' W 093°58'0 0.0
2018-Jul-10 00:30N 29°49' W 093°58'0 0.0
2018-Jul-10 00:00N 29°49' W 093°58'0 0.0
2018-Jul-09 23:30N 29°49' W 093°58'0 0.0
2018-Jul-09 23:00N 29°49' W 093°58'0 0.0
2018-Jul-09 22:30N 29°49' W 093°58'0 0.0
2018-Jul-09 22:00N 29°49' W 093°58'0 0.0
2018-Jul-09 21:30N 29°49' W 093°58'0 0.0
2018-Jul-09 21:00N 29°49' W 093°58'0 0.0
2018-Jul-09 20:30N 29°49' W 093°58'0 0.0
2018-Jul-09 20:00N 29°49' W 093°58'0 0.0
2018-Jul-09 19:30N 29°49' W 093°58'0 0.0
2018-Jul-09 19:00N 29°49' W 093°58'0 0.0
2018-Jul-09 18:30N 29°49' W 093°58'0 0.0
2018-Jul-09 18:00N 29°49' W 093°58'0 0.0
2018-Jul-09 17:30N 29°49' W 093°58'0 0.0
2018-Jul-09 17:00N 29°49' W 093°58'0 0.0
2018-Jul-09 16:30N 29°49' W 093°58'0 0.0
2018-Jul-09 16:00N 29°49' W 093°58'0 0.0
2018-Jul-09 15:30N 29°49' W 093°58'0 0.0
2018-Jul-09 15:00N 29°49' W 093°58'0 0.0
2018-Jul-09 14:30N 29°49' W 093°58'0 0.0
2018-Jul-09 14:00N 29°49' W 093°58'0 0.0
2018-Jul-09 13:30N 29°49' W 093°58'0 0.0
2018-Jul-09 13:00N 29°49' W 093°58'0 0.0
2018-Jul-09 12:30N 29°49' W 093°58'0 0.0
2018-Jul-09 12:00N 29°49' W 093°58'0 0.0
2018-Jul-09 11:31N 29°49' W 093°58'0 0.0
2018-Jul-09 11:00N 29°49' W 093°58'0 0.0
2018-Jul-09 10:30N 29°49' W 093°58'0 0.0
2018-Jul-09 10:00N 29°49' W 093°58'0 0.0
2018-Jul-09 09:30N 29°49' W 093°58'0 0.0
2018-Jul-09 09:00N 29°49' W 093°58'0 0.0
2018-Jul-09 08:30N 29°49' W 093°58'0 0.0
2018-Jul-09 08:00N 29°49' W 093°58'0 0.0
2018-Jul-09 07:30N 29°49' W 093°58'0 0.0
2018-Jul-09 07:00N 29°49' W 093°58'0 0.0
2018-Jul-09 06:30N 29°49' W 093°58'0 0.0
2018-Jul-09 06:00N 29°49' W 093°58'0 0.0
2018-Jul-09 05:30N 29°49' W 093°58'0 0.0
2018-Jul-09 05:00N 29°49' W 093°58'0 0.0
2018-Jul-09 04:30N 29°49' W 093°58'0 0.0
2018-Jul-09 04:00N 29°49' W 093°58'0 0.0
2018-Jul-09 03:30N 29°49' W 093°58'0 0.0
2018-Jul-09 03:00N 29°49' W 093°58'0 0.0
2018-Jul-09 02:30N 29°49' W 093°58'0 0.0
2018-Jul-09 02:00N 29°49' W 093°58'0 0.0
2018-Jul-09 01:30N 29°49' W 093°58'0 0.0
2018-Jul-09 01:00N 29°49' W 093°58'0 0.0
2018-Jul-09 00:30N 29°49' W 093°58'0 0.0
2018-Jul-09 00:00N 29°49' W 093°58'0 0.0
2018-Jul-08 23:30N 29°49' W 093°58'0 0.0
2018-Jul-08 22:59N 29°49' W 093°58'0 0.0
2018-Jul-08 22:30N 29°49' W 093°58'0 0.0
2018-Jul-08 22:00N 29°49' W 093°58'0 0.0
2018-Jul-08 21:30N 29°49' W 093°58'0 0.0
2018-Jul-08 21:00N 29°49' W 093°58'0 0.0
2018-Jul-08 20:30N 29°49' W 093°58'0 0.0
2018-Jul-08 20:00N 29°49' W 093°58'0 0.0
2018-Jul-08 19:30N 29°49' W 093°58'0 0.0
2018-Jul-08 19:00N 29°49' W 093°58'0 0.0
2018-Jul-08 18:30N 29°49' W 093°58'0 0.0
2018-Jul-08 18:00N 29°49' W 093°58'0 0.0
2018-Jul-08 17:30N 29°49' W 093°58'0 0.0
2018-Jul-08 17:00N 29°49' W 093°58'0 0.0
2018-Jul-08 16:30N 29°49' W 093°58'0 0.0
2018-Jul-08 16:00N 29°49' W 093°58'0 0.0
2018-Jul-08 15:30N 29°49' W 093°58'0 0.0
2018-Jul-08 15:00N 29°49' W 093°58'0 0.0
2018-Jul-08 14:30N 29°49' W 093°58'0 0.0
2018-Jul-08 14:00N 29°49' W 093°58'0 0.0
2018-Jul-08 13:30N 29°49' W 093°58'0 0.0
2018-Jul-08 13:00N 29°49' W 093°58'0 0.0
2018-Jul-08 12:30N 29°49' W 093°58'0 0.0
2018-Jul-08 12:00N 29°49' W 093°58'0 0.0
2018-Jul-08 11:30N 29°49' W 093°58'0 0.0
2018-Jul-08 11:00N 29°49' W 093°58'0 0.0
2018-Jul-08 10:31N 29°49' W 093°58'0 0.0
2018-Jul-08 10:00N 29°49' W 093°58'0 0.0
2018-Jul-08 09:30N 29°49' W 093°58'0 0.0
2018-Jul-08 09:00N 29°49' W 093°58'0 0.0
2018-Jul-08 08:30N 29°49' W 093°58'0 0.0
2018-Jul-08 08:00N 29°49' W 093°58'0 0.0
2018-Jul-08 07:30N 29°49' W 093°58'0 0.0
2018-Jul-08 07:00N 29°49' W 093°58'0 0.0
2018-Jul-08 06:30N 29°49' W 093°58'0 0.0
2018-Jul-08 06:00N 29°49' W 093°58'0 0.0
2018-Jul-08 05:30N 29°49' W 093°58'0 0.0
2018-Jul-08 05:00N 29°49' W 093°58'0 0.0
2018-Jul-08 04:31N 29°49' W 093°58'0 0.0
2018-Jul-08 04:00N 29°49' W 093°58'0 0.0
2018-Jul-08 03:30N 29°49' W 093°58'0 0.0
2018-Jul-08 03:01N 29°49' W 093°58'0 0.0
2018-Jul-08 02:30N 29°49' W 093°58'0 0.0
2018-Jul-08 02:00N 29°49' W 093°58'0 0.0
2018-Jul-08 01:30N 29°49' W 093°58'0 0.0
2018-Jul-08 01:00N 29°49' W 093°58'0 0.0
2018-Jul-08 00:30N 29°49' W 093°58'0 0.0
2018-Jul-08 00:00N 29°49' W 093°58'0 0.0
2018-Jul-07 23:30N 29°49' W 093°58'0 0.0
2018-Jul-07 23:00N 29°49' W 093°58'0 0.0
2018-Jul-07 22:31N 29°49' W 093°58'0 0.0
2018-Jul-07 22:00N 29°49' W 093°58'0 0.0
2018-Jul-07 21:30N 29°49' W 093°58'0 0.0
2018-Jul-07 21:00N 29°49' W 093°58'0 0.0
2018-Jul-07 20:30N 29°49' W 093°58'0 0.0
2018-Jul-07 20:00N 29°49' W 093°58'0 0.0
2018-Jul-07 19:30N 29°49' W 093°58'0 0.0
2018-Jul-07 19:00N 29°49' W 093°58'0 0.0
2018-Jul-07 18:30N 29°49' W 093°58'0 0.0
2018-Jul-07 18:00N 29°49' W 093°58'0 0.0
2018-Jul-07 17:30N 29°49' W 093°58'0 0.0
2018-Jul-07 17:01N 29°49' W 093°58'0 0.0
2018-Jul-07 16:30N 29°49' W 093°58'0 0.0
2018-Jul-07 16:00N 29°49' W 093°58'0 0.0
2018-Jul-07 15:30N 29°49' W 093°58'0 0.0
2018-Jul-07 15:00N 29°49' W 093°58'0 0.0
2018-Jul-07 14:30N 29°49' W 093°58'0 0.0
2018-Jul-07 14:01N 29°49' W 093°58'0 0.0
2018-Jul-07 13:30N 29°49' W 093°58'0 0.0
2018-Jul-07 13:00N 29°49' W 093°58'0 0.0
2018-Jul-07 12:30N 29°49' W 093°58'0 0.0
2018-Jul-07 11:59N 29°49' W 093°58'0 0.0
2018-Jul-07 11:30N 29°49' W 093°58'  
Track history (hours):
 
Tides and Currents Weather Stations Pressure Air Temp Water Temp Dewpoint Dewpoint Depression Visibility Wind Speed Wind Dir Waves Ship Positions

James Davison

Owner: Genesis Marine, LLC, Houston, TX. More information available from US FCC via Universal Licensing System and Coast Guard Vessel Documentation Center.

Last reported at 2018-Jul-17 11:28 UTC. Time now 2018-Jul-17 11:33 UTC.
Position N 29°47' W 095°06'.

Length 26 m; draft 3 m.

Type: Other ship. MMSI: 367505050.

Date/timePositionNaut miles runAvg speedWind from/ knotsBaromVisibWave heightAir tempDewpointWater temp
2018-Jul-17 11:28N 29°47' W 095°06'0 0.0
2018-Jul-17 11:00N 29°47' W 095°06'0 0.0
2018-Jul-17 10:25N 29°47' W 095°06'0 0.0
2018-Jul-17 09:56N 29°47' W 095°06'0 0.0
2018-Jul-17 09:28N 29°47' W 095°06'0 0.0
2018-Jul-17 09:00N 29°47' W 095°06'0 0.0
2018-Jul-17 08:29N 29°47' W 095°06'0 0.0
2018-Jul-17 08:00N 29°47' W 095°06'0 0.0
2018-Jul-17 07:30N 29°47' W 095°06'0 0.0
2018-Jul-17 07:00N 29°47' W 095°06'0 0.0
2018-Jul-17 06:30N 29°47' W 095°06'0 0.0
2018-Jul-17 06:00N 29°47' W 095°06'0 0.0
2018-Jul-17 05:30N 29°47' W 095°06'0 0.0
2018-Jul-17 05:00N 29°47' W 095°06'0 0.0
2018-Jul-17 04:30N 29°47' W 095°06'0 0.0
2018-Jul-17 04:00N 29°47' W 095°06'0 0.0
2018-Jul-17 03:30N 29°47' W 095°06'0 0.0
2018-Jul-17 02:43N 29°47' W 095°06'0 0.0
2018-Jul-17 02:02N 29°47' W 095°06'0 0.0
2018-Jul-17 01:51N 29°47' W 095°06'0 0.0
2018-Jul-16 14:23N 29°47' W 095°06'0 0.0
2018-Jul-16 13:58N 29°47' W 095°06'0 0.0
2018-Jul-16 13:30N 29°47' W 095°06'0 0.0
2018-Jul-16 13:00N 29°47' W 095°06'0 0.1
2018-Jul-16 12:18N 29°47' W 095°06'0 0.2
2018-Jul-16 11:59N 29°47' W 095°06'0 0.0
2018-Jul-16 11:09N 29°47' W 095°06'0 0.0
2018-Jul-16 09:03N 29°47' W 095°06'0 0.0
2018-Jul-16 08:12N 29°47' W 095°06'0 0.0
2018-Jul-16 07:55N 29°47' W 095°06'1 0.0
2018-Jul-15 08:01N 29°46' W 095°05'0 2.3
2018-Jul-15 07:57N 29°46' W 095°05'1 1.9
2018-Jul-15 07:29N 29°45' W 095°06'0 0.0
2018-Jul-15 06:57N 29°45' W 095°06'0 0.0
2018-Jul-15 06:11N 29°45' W 095°06'0 0.0
2018-Jul-15 06:00N 29°45' W 095°06'0 0.0
2018-Jul-15 05:20N 29°45' W 095°06'0 0.0
2018-Jul-15 04:54N 29°45' W 095°06'0 0.0
2018-Jul-15 04:28N 29°45' W 095°06'0 0.0
2018-Jul-15 04:00N 29°45' W 095°06'0 0.0
2018-Jul-15 03:27N 29°45' W 095°06'0 0.0
2018-Jul-15 02:56N 29°45' W 095°06'0 0.0
2018-Jul-15 02:14N 29°45' W 095°06'0 0.0
2018-Jul-15 02:00N 29°45' W 095°06'0 0.0
2018-Jul-15 01:29N 29°45' W 095°06'0 0.0
2018-Jul-15 00:59N 29°45' W 095°06'0 0.0
2018-Jul-14 13:08N 29°45' W 095°06'0 0.0
2018-Jul-14 12:08N 29°45' W 095°06'1 0.1
2018-Jul-14 07:43N 29°45' W 095°06'1 3.0
2018-Jul-14 07:29N 29°46' W 095°05'2 1.4
2018-Jul-14 06:06N 29°47' W 095°04'2 4.2
2018-Jul-14 05:42N 29°46' W 095°05'0 0.0
2018-Jul-14 04:02N 29°46' W 095°05'4 0.8
2018-Jul-13 22:30N 29°43' W 095°01'2 4.3
2018-Jul-13 22:00N 29°42' W 094°59'3 5.1
2018-Jul-13 21:30N 29°39' W 094°58'3 5.1
2018-Jul-13 20:58N 29°37' W 094°57'2 4.4
2018-Jul-13 20:30N 29°35' W 094°56'2 4.9
2018-Jul-13 20:00N 29°33' W 094°54'3 5.6
2018-Jul-13 19:28N 29°30' W 094°53'9 5.5
2018-Jul-13 17:54N 29°23' W 094°48'1 3.3
2018-Jul-13 17:30N 29°22' W 094°50'2 4.1
2018-Jul-13 17:00N 29°23' W 094°52'1 1.8
2018-Jul-13 16:30N 29°23' W 094°53'1 1.5
2018-Jul-13 16:00N 29°23' W 094°52'0 0.6
2018-Jul-13 15:30N 29°23' W 094°52'0 0.1
2018-Jul-13 15:00N 29°23' W 094°52'0 0.0
2018-Jul-13 14:27N 29°23' W 094°52'0 0.0
2018-Jul-13 13:30N 29°23' W 094°52'0 0.0
2018-Jul-13 13:00N 29°23' W 094°52'0 0.0
2018-Jul-13 12:30N 29°23' W 094°52'0 0.0
2018-Jul-13 12:00N 29°23' W 094°52'0 0.0
2018-Jul-13 11:31N 29°23' W 094°52'0 0.0
2018-Jul-13 10:59N 29°23' W 094°52'0 0.0
2018-Jul-13 10:30N 29°23' W 094°52'0 0.0
2018-Jul-13 10:00N 29°23' W 094°52'0 0.0
2018-Jul-13 09:30N 29°23' W 094°52'0 0.0
2018-Jul-13 09:00N 29°23' W 094°52'0 0.0
2018-Jul-13 08:30N 29°23' W 094°52'0 0.0
2018-Jul-13 08:00N 29°23' W 094°52'0 0.0
2018-Jul-13 07:31N 29°23' W 094°52'0 0.0
2018-Jul-13 07:01N 29°23' W 094°52'0 0.0
2018-Jul-13 06:31N 29°23' W 094°52'0 0.0
2018-Jul-13 06:00N 29°23' W 094°52'0 0.0
2018-Jul-13 05:31N 29°23' W 094°52'0 0.0
2018-Jul-13 05:01N 29°23' W 094°52'0 0.0
2018-Jul-13 04:30N 29°23' W 094°52'0 0.0
2018-Jul-13 04:00N 29°23' W 094°52'0 0.0
2018-Jul-13 03:30N 29°23' W 094°52'0 0.0
2018-Jul-13 03:00N 29°23' W 094°52'0 0.0
2018-Jul-13 02:28N 29°23' W 094°52'0 0.0
2018-Jul-13 02:00N 29°23' W 094°52'0 0.0
2018-Jul-13 01:30N 29°23' W 094°52'1 2.9
2018-Jul-13 01:01N 29°22' W 094°54'1 2.8
2018-Jul-13 00:30N 29°23' W 094°52'0 0.0
2018-Jul-13 00:00N 29°23' W 094°52'0 0.0
2018-Jul-12 23:30N 29°23' W 094°52'0 0.0
2018-Jul-12 23:00N 29°23' W 094°52'0 0.0
2018-Jul-12 22:30N 29°23' W 094°52'0 0.0
2018-Jul-12 22:01N 29°23' W 094°52'0 0.0
2018-Jul-12 21:30N 29°23' W 094°52'0 0.0
2018-Jul-12 21:01N 29°23' W 094°52'0 0.0
2018-Jul-12 20:30N 29°23' W 094°52'0 0.1
2018-Jul-12 20:00N 29°23' W 094°52'1 1.9
2018-Jul-12 19:30N 29°23' W 094°53'0 1.0
2018-Jul-12 19:00N 29°22' W 094°53'0 0.0
2018-Jul-12 18:31N 29°22' W 094°53'0 0.0
2018-Jul-12 18:00N 29°22' W 094°53'0 0.0
2018-Jul-12 17:30N 29°22' W 094°53'0 0.0
2018-Jul-12 17:00N 29°22' W 094°53'0 0.0
2018-Jul-12 16:29N 29°22' W 094°53'0 0.4
2018-Jul-12 15:18N 29°22' W 094°54'0 1.5
2018-Jul-12 15:00N 29°22' W 094°53'0 0.0
2018-Jul-12 14:30N 29°22' W 094°53'0 0.0
2018-Jul-12 13:48N 29°22' W 094°53'0 0.0
2018-Jul-12 13:30N 29°22' W 094°53'0 0.0
2018-Jul-12 13:00N 29°22' W 094°53'0 0.0
2018-Jul-12 12:30N 29°22' W 094°53'0 0.0
2018-Jul-12 11:56N 29°22' W 094°53'0 0.0
2018-Jul-12 11:30N 29°22' W 094°53'0 0.0
2018-Jul-12 11:00N 29°22' W 094°53'0 0.0
2018-Jul-12 10:29N 29°22' W 094°53'0 0.0
2018-Jul-12 10:00N 29°22' W 094°53'0 0.0
2018-Jul-12 09:30N 29°22' W 094°53'0 0.0
2018-Jul-12 08:35N 29°22' W 094°53'0 0.0
2018-Jul-12 05:45N 29°22' W 094°53'0 0.0
2018-Jul-12 05:11N 29°22' W 094°53'0 0.0
2018-Jul-12 05:00N 29°22' W 094°53'0 0.2
2018-Jul-12 04:30N 29°22' W 094°53'0 0.5
2018-Jul-12 04:00N 29°22' W 094°53'1 2.6
2018-Jul-12 03:30N 29°23' W 094°52'3 6.5
2018-Jul-12 02:58N 29°22' W 094°48'2 4.9
2018-Jul-12 02:30N 29°23' W 094°46'0 0.4
2018-Jul-12 01:58N 29°24' W 094°46'20 6.1
2018-Jul-11 22:42N 29°34' W 094°26'2 5.4
2018-Jul-11 22:19N 29°36' W 094°25'9 6.0
2018-Jul-11 20:49N 29°39' W 094°15'2 6.1
2018-Jul-11 20:30N 29°40' W 094°13'3 6.0
2018-Jul-11 20:00N 29°41' W 094°10'3 5.9
2018-Jul-11 19:30N 29°43' W 094°07'3 6.1
2018-Jul-11 19:00N 29°45' W 094°05'3 6.0
2018-Jul-11 18:30N 29°47' W 094°02'3 6.0
2018-Jul-11 18:00N 29°49' W 093°60'3 5.0
2018-Jul-11 17:30N 29°50' W 093°57'2 4.9
2018-Jul-11 17:00N 29°52' W 093°56'3 6.6
2018-Jul-11 16:30N 29°55' W 093°53'2 4.8
2018-Jul-11 16:00N 29°57' W 093°52'3 5.2
2018-Jul-11 15:30N 29°59' W 093°53'1 2.2
2018-Jul-11 15:00N 29°60' W 093°55'0 0.0
2018-Jul-11 14:30N 29°60' W 093°55'0 0.0
2018-Jul-11 14:00N 29°60' W 093°55'0 0.0
2018-Jul-11 13:30N 29°60' W 093°55'0 0.0
2018-Jul-11 13:00N 29°60' W 093°55'0 0.0
2018-Jul-11 12:30N 29°60' W 093°55'0 0.0
2018-Jul-11 12:00N 29°60' W 093°55'0 0.0
2018-Jul-11 11:30N 29°60' W 093°55'0 0.0
2018-Jul-11 10:59N 29°60' W 093°55'0 0.0
2018-Jul-11 10:30N 29°60' W 093°55'0 0.0
2018-Jul-11 10:00N 29°60' W 093°55'0 0.0
2018-Jul-11 09:30N 29°60' W 093°55'1 2.4
2018-Jul-11 09:00N 29°59' W 093°53'3 5.2
2018-Jul-11 08:30N 29°57' W 093°52'4 7.4
2018-Jul-11 08:00N 29°54' W 093°54'4 7.1
2018-Jul-11 07:30N 29°51' W 093°57'1 2.9
2018-Jul-11 07:00N 29°50' W 093°58'1 1.5
2018-Jul-11 06:30N 29°51' W 093°58'0 0.0
2018-Jul-11 06:00N 29°51' W 093°58'0 0.0
2018-Jul-11 05:30N 29°51' W 093°58'0 0.0
2018-Jul-11 05:00N 29°51' W 093°58'0 0.0
2018-Jul-11 04:30N 29°51' W 093°58'0 0.0
2018-Jul-11 04:00N 29°51' W 093°58'0 0.0
2018-Jul-11 03:30N 29°51' W 093°58'0 0.0
2018-Jul-11 03:00N 29°51' W 093°58'0 0.0
2018-Jul-11 02:30N 29°51' W 093°58'0 0.0
2018-Jul-11 02:01N 29°51' W 093°58'0 0.0
2018-Jul-11 01:31N 29°51' W 093°58'0 0.0
2018-Jul-11 01:00N 29°51' W 093°58'0 0.0
2018-Jul-11 00:30N 29°51' W 093°58'0 0.0
2018-Jul-11 00:00N 29°51' W 093°58'0 0.0
2018-Jul-10 23:30N 29°51' W 093°58'0 0.0
2018-Jul-10 23:00N 29°51' W 093°58'0 0.0
2018-Jul-10 22:30N 29°51' W 093°58'0 0.0
2018-Jul-10 22:00N 29°51' W 093°58'0 0.0
2018-Jul-10 21:30N 29°51' W 093°58'0 0.0
2018-Jul-10 21:00N 29°51' W 093°58'0 0.0
2018-Jul-10 20:30N 29°51' W 093°58'0 0.0
2018-Jul-10 20:00N 29°51' W 093°58'0 0.0
2018-Jul-10 19:30N 29°51' W 093°58'0 0.0
2018-Jul-10 19:00N 29°51' W 093°58'0 0.0
2018-Jul-10 18:30N 29°51' W 093°58'0 0.0
2018-Jul-10 18:01N 29°51' W 093°58'0 0.0
2018-Jul-10 17:30N 29°51' W 093°58'0 0.0
2018-Jul-10 17:00N 29°51' W 093°58'0 0.0
2018-Jul-10 16:30N 29°51' W 093°58'0 0.0
2018-Jul-10 16:00N 29°51' W 093°58'0 0.0
2018-Jul-10 15:30N 29°51' W 093°58'0 0.0
2018-Jul-10 15:00N 29°51' W 093°58'0 0.0
2018-Jul-10 14:30N 29°51' W 093°58'0 0.0
2018-Jul-10 14:00N 29°51' W 093°58'0 0.0
2018-Jul-10 13:30N 29°51' W 093°58'0 0.0
2018-Jul-10 13:00N 29°51' W 093°58'0 0.0
2018-Jul-10 12:30N 29°51' W 093°58'0 0.0
2018-Jul-10 12:00N 29°51' W 093°58'0 0.0
2018-Jul-10 11:30N 29°51' W 093°58'0 0.0
2018-Jul-10 11:00N 29°51' W 093°58'1 1.9
2018-Jul-10 10:30N 29°50' W 093°58'1 1.3
2018-Jul-10 10:00N 29°49' W 093°58'0 0.0
2018-Jul-10 09:30N 29°49' W 093°58'0 0.0
2018-Jul-10 09:00N 29°49' W 093°58'0 0.0
2018-Jul-10 08:30N 29°49' W 093°58'0 0.0
2018-Jul-10 08:00N 29°49' W 093°58'0 0.0
2018-Jul-10 07:30N 29°49' W 093°58'0 0.0
2018-Jul-10 07:00N 29°49' W 093°58'0 0.0
2018-Jul-10 06:30N 29°49' W 093°58'0 0.0
2018-Jul-10 06:00N 29°49' W 093°58'0 0.0
2018-Jul-10 05:30N 29°49' W 093°58'0 0.0
2018-Jul-10 05:00N 29°49' W 093°58'0 0.0
2018-Jul-10 04:30N 29°49' W 093°58'0 0.0
2018-Jul-10 04:00N 29°49' W 093°58'0 0.0
2018-Jul-10 03:30N 29°49' W 093°58'0 0.0
2018-Jul-10 03:00N 29°49' W 093°58'0 0.0
2018-Jul-10 02:30N 29°49' W 093°58'0 0.0
2018-Jul-10 02:00N 29°49' W 093°58'0 0.0
2018-Jul-10 01:31N 29°49' W 093°58'0 0.0
2018-Jul-10 01:00N 29°49' W 093°58'0 0.0
2018-Jul-10 00:30N 29°49' W 093°58'0 0.0
2018-Jul-10 00:00N 29°49' W 093°58'0 0.0
2018-Jul-09 23:30N 29°49' W 093°58'0 0.0
2018-Jul-09 23:00N 29°49' W 093°58'0 0.0
2018-Jul-09 22:30N 29°49' W 093°58'0 0.0
2018-Jul-09 22:00N 29°49' W 093°58'0 0.0
2018-Jul-09 21:30N 29°49' W 093°58'0 0.0
2018-Jul-09 21:00N 29°49' W 093°58'0 0.0
2018-Jul-09 20:30N 29°49' W 093°58'0 0.0
2018-Jul-09 20:00N 29°49' W 093°58'0 0.0
2018-Jul-09 19:30N 29°49' W 093°58'0 0.0
2018-Jul-09 19:00N 29°49' W 093°58'0 0.0
2018-Jul-09 18:30N 29°49' W 093°58'0 0.0
2018-Jul-09 18:00N 29°49' W 093°58'0 0.0
2018-Jul-09 17:30N 29°49' W 093°58'0 0.0
2018-Jul-09 17:00N 29°49' W 093°58'0 0.0
2018-Jul-09 16:30N 29°49' W 093°58'0 0.0
2018-Jul-09 16:00N 29°49' W 093°58'0 0.0
2018-Jul-09 15:30N 29°49' W 093°58'0 0.0
2018-Jul-09 15:00N 29°49' W 093°58'0 0.0
2018-Jul-09 14:30N 29°49' W 093°58'0 0.0
2018-Jul-09 14:00N 29°49' W 093°58'0 0.0
2018-Jul-09 13:30N 29°49' W 093°58'0 0.0
2018-Jul-09 13:00N 29°49' W 093°58'0 0.0
2018-Jul-09 12:30N 29°49' W 093°58'0 0.0
2018-Jul-09 12:00N 29°49' W 093°58'0 0.0
2018-Jul-09 11:31N 29°49' W 093°58'0 0.0
2018-Jul-09 11:00N 29°49' W 093°58'0 0.0
2018-Jul-09 10:30N 29°49' W 093°58'0 0.0
2018-Jul-09 10:00N 29°49' W 093°58'0 0.0
2018-Jul-09 09:30N 29°49' W 093°58'0 0.0
2018-Jul-09 09:00N 29°49' W 093°58'0 0.0
2018-Jul-09 08:30N 29°49' W 093°58'0 0.0
2018-Jul-09 08:00N 29°49' W 093°58'0 0.0
2018-Jul-09 07:30N 29°49' W 093°58'0 0.0
2018-Jul-09 07:00N 29°49' W 093°58'0 0.0
2018-Jul-09 06:30N 29°49' W 093°58'0 0.0
2018-Jul-09 06:00N 29°49' W 093°58'0 0.0
2018-Jul-09 05:30N 29°49' W 093°58'0 0.0
2018-Jul-09 05:00N 29°49' W 093°58'0 0.0
2018-Jul-09 04:30N 29°49' W 093°58'0 0.0
2018-Jul-09 04:00N 29°49' W 093°58'0 0.0
2018-Jul-09 03:30N 29°49' W 093°58'0 0.0
2018-Jul-09 03:00N 29°49' W 093°58'0 0.0
2018-Jul-09 02:30N 29°49' W 093°58'0 0.0
2018-Jul-09 02:00N 29°49' W 093°58'0 0.0
2018-Jul-09 01:30N 29°49' W 093°58'0 0.0
2018-Jul-09 01:00N 29°49' W 093°58'0 0.0
2018-Jul-09 00:30N 29°49' W 093°58'0 0.0
2018-Jul-09 00:00N 29°49' W 093°58'0 0.0
2018-Jul-08 23:30N 29°49' W 093°58'0 0.0
2018-Jul-08 22:59N 29°49' W 093°58'0 0.0
2018-Jul-08 22:30N 29°49' W 093°58'0 0.0
2018-Jul-08 22:00N 29°49' W 093°58'0 0.0
2018-Jul-08 21:30N 29°49' W 093°58'0 0.0
2018-Jul-08 21:00N 29°49' W 093°58'0 0.0
2018-Jul-08 20:30N 29°49' W 093°58'0 0.0
2018-Jul-08 20:00N 29°49' W 093°58'0 0.0
2018-Jul-08 19:30N 29°49' W 093°58'0 0.0
2018-Jul-08 19:00N 29°49' W 093°58'0 0.0
2018-Jul-08 18:30N 29°49' W 093°58'0 0.0
2018-Jul-08 18:00N 29°49' W 093°58'0 0.0
2018-Jul-08 17:30N 29°49' W 093°58'0 0.0
2018-Jul-08 17:00N 29°49' W 093°58'0 0.0
2018-Jul-08 16:30N 29°49' W 093°58'0 0.0
2018-Jul-08 16:00N 29°49' W 093°58'0 0.0
2018-Jul-08 15:30N 29°49' W 093°58'0 0.0
2018-Jul-08 15:00N 29°49' W 093°58'0 0.0
2018-Jul-08 14:30N 29°49' W 093°58'0 0.0
2018-Jul-08 14:00N 29°49' W 093°58'0 0.0
2018-Jul-08 13:30N 29°49' W 093°58'0 0.0
2018-Jul-08 13:00N 29°49' W 093°58'0 0.0
2018-Jul-08 12:30N 29°49' W 093°58'0 0.0
2018-Jul-08 12:00N 29°49' W 093°58'0 0.0
2018-Jul-08 11:30N 29°49' W 093°58'0 0.0
2018-Jul-08 11:00N 29°49' W 093°58'0 0.0
2018-Jul-08 10:31N 29°49' W 093°58'0 0.0
2018-Jul-08 10:00N 29°49' W 093°58'0 0.0
2018-Jul-08 09:30N 29°49' W 093°58'0 0.0
2018-Jul-08 09:00N 29°49' W 093°58'0 0.0
2018-Jul-08 08:30N 29°49' W 093°58'0 0.0
2018-Jul-08 08:00N 29°49' W 093°58'0 0.0
2018-Jul-08 07:30N 29°49' W 093°58'0 0.0
2018-Jul-08 07:00N 29°49' W 093°58'0 0.0
2018-Jul-08 06:30N 29°49' W 093°58'0 0.0
2018-Jul-08 06:00N 29°49' W 093°58'0 0.0
2018-Jul-08 05:30N 29°49' W 093°58'0 0.0
2018-Jul-08 05:00N 29°49' W 093°58'0 0.0
2018-Jul-08 04:31N 29°49' W 093°58'0 0.0
2018-Jul-08 04:00N 29°49' W 093°58'0 0.0
2018-Jul-08 03:30N 29°49' W 093°58'0 0.0
2018-Jul-08 03:01N 29°49' W 093°58'0 0.0
2018-Jul-08 02:30N 29°49' W 093°58'0 0.0
2018-Jul-08 02:00N 29°49' W 093°58'0 0.0
2018-Jul-08 01:30N 29°49' W 093°58'0 0.0
2018-Jul-08 01:00N 29°49' W 093°58'0 0.0
2018-Jul-08 00:30N 29°49' W 093°58'0 0.0
2018-Jul-08 00:00N 29°49' W 093°58'0 0.0
2018-Jul-07 23:30N 29°49' W 093°58'0 0.0
2018-Jul-07 23:00N 29°49' W 093°58'0 0.0
2018-Jul-07 22:31N 29°49' W 093°58'0 0.0
2018-Jul-07 22:00N 29°49' W 093°58'0 0.0
2018-Jul-07 21:30N 29°49' W 093°58'0 0.0
2018-Jul-07 21:00N 29°49' W 093°58'0 0.0
2018-Jul-07 20:30N 29°49' W 093°58'0 0.0
2018-Jul-07 20:00N 29°49' W 093°58'0 0.0
2018-Jul-07 19:30N 29°49' W 093°58'0 0.0
2018-Jul-07 19:00N 29°49' W 093°58'0 0.0
2018-Jul-07 18:30N 29°49' W 093°58'0 0.0
2018-Jul-07 18:00N 29°49' W 093°58'0 0.0
2018-Jul-07 17:30N 29°49' W 093°58'0 0.0
2018-Jul-07 17:01N 29°49' W 093°58'0 0.0
2018-Jul-07 16:30N 29°49' W 093°58'0 0.0
2018-Jul-07 16:00N 29°49' W 093°58'0 0.0
2018-Jul-07 15:30N 29°49' W 093°58'0 0.0
2018-Jul-07 15:00N 29°49' W 093°58'0 0.0
2018-Jul-07 14:30N 29°49' W 093°58'0 0.0
2018-Jul-07 14:01N 29°49' W 093°58'0 0.0
2018-Jul-07 13:30N 29°49' W 093°58'0 0.0
2018-Jul-07 13:00N 29°49' W 093°58'0 0.0
2018-Jul-07 12:30N 29°49' W 093°58'0 0.0
2018-Jul-07 11:59N 29°49' W 093°58'0 0.0
2018-Jul-07 11:30N 29°49' W 093°58'  

Dump ship's entire track history